Impacts TAF Board
For situational awareness. Not to be used for flight planning purposes.
IDs:

KSLE - Salem Muni, OR, US

Issued at 1132 UTC 15 Jul 2020
Updated at 1316 UTC 15 Jul 2020
Potential Impact None Slight Moderate High
Time1256Z 15/14Z 15/15Z 15/16Z 15/17Z 15/18Z 15/19Z 15/20Z 15/21Z 15/22Z 15/23Z 16/00Z 16/01Z 16/02Z>>
Type OBS PRVL PRVL PRVL PRVL PRVL PRVL PRVL PRVL PRVL PRVL PRVL PRVL PRVL
VIS 10 >6 >6 >6 >6 >6 >6 >6 >6 >6 >6 >6 >6 >6
CIG -- -- -- -- -- -- -- -- -- -- -- -- -- --
Cover CLR SKC SKC SKC SKC SKC SKC SKC SKC SKC SKC SKC SKC SKC
FltCat VFR VFR VFR VFR VFR VFR VFR VFR VFR VFR VFR VFR VFR VFR
WX -- -- -- -- -- -- -- -- -- -- -- -- -- --
WDir VRB 360 360 360 360 360 360 10 10 10 10 10 10 360
WSpd 0 5 5 5 5 5 5 10 10 10 10 10 10 9
WGst -- -- -- -- -- -- -- 18 18 18 18 18 18 --
Raw TAF
KSLE 151132Z 1512/1612 36005KT P6SM SKC
  FM152000 01010G18KT P6SM SKC
  FM160200 36009KT P6SM SKC
  FM160700 VRB04KT P6SM SKC


Raw METAR
KSLE 151256Z AUTO 00000KT 10SM CLR 13/10 A3009 RMK AO2 SLP189 T01330100
KSLE 151156Z AUTO 00000KT 10SM CLR 14/10 A3008 RMK AO2 SLP185 T01390100 10206 20133 51003
KSLE 151056Z AUTO 00000KT 10SM CLR 14/11 A3008 RMK AO2 SLP184 T01440106

METAR Board
Radar Display
Forecast Discussion
For situational awareness. Not to be used for flight planning purposes.